Time;durP1;ratioP1;P1;durP2;ratioP2;P2;SDS_P1;SDS_P2;PMS_P1;PMS_P2;Temp;Humidity;BMP_temperature;BMP_pressure;BME280_temperature;BME280_humidity;BME280_pressure;Samples;Min_cycle;Max_cycle;Signal;HPM_P1;HPM_P2
2024/01/06 00:00:02;;;;;;;15.82;7.65;;;5.60;99.90;;;;;;5058696;28;20604;-76
2024/01/06 00:02:28;;;;;;;15.82;6.90;;;5.60;99.90;;;;;;5058738;28;20025;-75
2024/01/06 00:04:53;;;;;;;18.25;6.68;;;5.60;99.90;;;;;;5061122;28;20092;-74
2024/01/06 00:07:19;;;;;;;15.50;7.18;;;5.70;99.90;;;;;;5040272;28;20024;-75
2024/01/06 00:09:45;;;;;;;12.82;7.18;;;5.80;99.90;;;;;;5050491;28;20032;-77
2024/01/06 00:12:11;;;;;;;13.50;7.30;;;5.80;99.90;;;;;;5056496;28;20048;-77
2024/01/06 00:14:36;;;;;;;18.95;7.75;;;5.80;99.90;;;;;;5033834;28;20025;-76
2024/01/06 00:17:02;;;;;;;13.38;8.75;;;5.80;99.90;;;;;;5055031;28;20016;-76
2024/01/06 00:19:28;;;;;;;17.38;7.55;;;5.80;99.90;;;;;;5058332;28;20078;-75
2024/01/06 00:21:54;;;;;;;16.15;8.73;;;5.80;99.90;;;;;;5057867;28;20209;-75
2024/01/06 00:24:19;;;;;;;19.05;8.02;;;5.70;99.90;;;;;;5054644;28;20025;-76
2024/01/06 00:26:45;;;;;;;16.30;8.80;;;5.70;99.90;;;;;;5045219;28;20092;-78
2024/01/06 00:29:10;;;;;;;17.00;7.43;;;5.70;99.90;;;;;;5055400;28;20028;-76
2024/01/06 00:31:36;;;;;;;15.40;7.57;;;5.70;99.90;;;;;;5056087;28;20380;-77
2024/01/06 00:34:03;;;;;;;18.15;9.13;;;5.70;99.90;;;;;;5027128;28;20421;-77
2024/01/06 00:36:29;;;;;;;21.35;8.27;;;5.70;99.90;;;;;;5031343;28;20126;-76
2024/01/06 00:38:54;;;;;;;16.00;8.45;;;5.70;99.90;;;;;;5043440;28;20146;-76
2024/01/06 00:41:20;;;;;;;14.38;7.65;;;5.70;99.90;;;;;;5058784;28;20044;-77
2024/01/06 00:43:46;;;;;;;19.52;8.88;;;5.70;99.90;;;;;;5056599;28;20063;-77
2024/01/06 00:46:11;;;;;;;17.70;8.02;;;5.70;99.90;;;;;;5056960;28;20028;-76
2024/01/06 00:48:37;;;;;;;18.63;7.28;;;5.70;99.90;;;;;;5056497;28;20024;-76
2024/01/06 00:51:03;;;;;;;15.10;8.38;;;5.70;99.90;;;;;;5048253;28;20462;-76
2024/01/06 00:53:29;;;;;;;12.35;7.07;;;5.70;99.90;;;;;;5046898;28;20055;-76
2024/01/06 00:55:54;;;;;;;12.45;6.97;;;5.10;99.90;;;;;;5045171;28;20596;-77
2024/01/06 00:58:20;;;;;;;14.80;7.88;;;5.70;99.90;;;;;;5048492;28;20515;-77
2024/01/06 01:00:46;;;;;;;17.80;9.02;;;5.60;99.90;;;;;;5047997;28;20036;-76
2024/01/06 01:03:11;;;;;;;16.83;8.88;;;5.60;99.90;;;;;;5028527;28;20111;-76
2024/01/06 01:05:37;;;;;;;13.90;7.15;;;5.60;99.90;;;;;;5045814;28;20113;-76
2024/01/06 01:08:03;;;;;;;15.60;7.57;;;5.50;99.90;;;;;;5018748;28;20079;-77
2024/01/06 01:10:29;;;;;;;16.83;7.72;;;5.60;99.90;;;;;;5056917;28;20213;-77
2024/01/06 01:12:55;;;;;;;15.93;8.20;;;5.00;99.90;;;;;;5038493;28;20100;-77
2024/01/06 01:15:20;;;;;;;14.57;8.48;;;5.50;99.90;;;;;;5043024;28;20028;-77
2024/01/06 01:17:46;;;;;;;13.93;8.75;;;5.40;99.90;;;;;;5055882;28;20402;-77
2024/01/06 01:20:12;;;;;;;18.10;7.53;;;5.40;99.90;;;;;;5057714;28;20056;-76
2024/01/06 01:22:37;;;;;;;13.40;6.97;;;5.40;99.90;;;;;;5039046;28;20025;-77
2024/01/06 01:25:07;;;;;;;18.38;6.63;;;5.50;99.90;;;;;;5051890;28;20135;-77
2024/01/06 01:27:36;;;;;;;9.10;6.38;;;5.50;99.90;;;;;;5061117;28;20043;-77
2024/01/06 01:30:02;;;;;;;12.60;6.93;;;5.50;99.90;;;;;;5062331;28;20047;-77
2024/01/06 01:32:27;;;;;;;14.35;6.47;;;5.50;99.90;;;;;;5039083;28;20500;-77
2024/01/06 01:34:53;;;;;;;11.02;6.25;;;5.50;99.90;;;;;;5037372;28;20039;-76
2024/01/06 01:37:18;;;;;;;14.23;6.47;;;5.40;99.90;;;;;;5063936;28;20039;-77
2024/01/06 01:39:44;;;;;;;11.20;6.45;;;5.40;99.90;;;;;;5059512;28;20028;-76
2024/01/06 01:42:10;;;;;;;13.52;6.85;;;5.40;99.90;;;;;;5057031;28;20075;-76
2024/01/06 01:44:35;;;;;;;16.83;7.47;;;5.40;99.90;;;;;;5062603;28;20021;-77
2024/01/06 01:47:03;;;;;;;16.55;7.22;;;5.50;99.90;;;;;;5061896;28;20052;-77
2024/01/06 01:49:28;;;;;;;12.82;6.43;;;5.50;99.90;;;;;;5045358;28;20409;-76
2024/01/06 01:51:54;;;;;;;16.10;7.10;;;5.50;99.90;;;;;;5061009;28;20040;-77
2024/01/06 01:54:20;;;;;;;15.65;7.35;;;5.50;99.90;;;;;;5062472;28;20392;-77
2024/01/06 01:56:46;;;;;;;18.13;7.25;;;5.40;99.90;;;;;;5060383;28;20025;-76
2024/01/06 01:59:13;;;;;;;15.35;6.82;;;5.40;99.90;;;;;;5043239;28;20052;-75
2024/01/06 02:01:40;;;;;;;14.57;6.18;;;5.40;99.90;;;;;;5043467;28;20059;-75
2024/01/06 02:04:06;;;;;;;12.90;6.68;;;5.40;99.90;;;;;;5045565;28;20025;-75
2024/01/06 02:06:32;;;;;;;10.98;6.20;;;5.30;99.90;;;;;;5057087;28;20020;-75
2024/01/06 02:08:58;;;;;;;8.77;4.88;;;5.30;99.90;;;;;;5042891;28;20033;-75
2024/01/06 02:11:30;;;;;;;8.30;4.43;;;5.30;99.90;;;;;;5063580;28;20029;-76
2024/01/06 02:13:58;;;;;;;8.02;4.38;;;5.30;99.90;;;;;;5058206;28;20423;-75
2024/01/06 02:16:24;;;;;;;7.78;3.65;;;5.30;99.90;;;;;;5056474;28;20580;-75
2024/01/06 02:18:50;;;;;;;9.30;3.50;;;5.30;99.90;;;;;;5052170;28;20060;-74
2024/01/06 02:21:47;;;;;;;7.82;3.80;;;5.30;99.90;;;;;;5047340;28;20021;-75
2024/01/06 02:24:21;;;;;;;9.43;4.60;;;5.20;99.90;;;;;;5050889;28;20028;-75
2024/01/06 02:26:48;;;;;;;9.02;3.60;;;5.20;99.90;;;;;;5052234;28;20611;-74
2024/01/06 02:29:17;;;;;;;6.53;3.03;;;5.20;99.90;;;;;;5046767;28;20029;-75
2024/01/06 02:31:48;;;;;;;7.70;4.05;;;5.20;99.90;;;;;;5052588;28;20025;-75
2024/01/06 02:34:14;;;;;;;5.80;3.70;;;5.10;99.90;;;;;;5051132;28;20032;-76
2024/01/06 02:36:49;;;;;;;7.53;3.65;;;5.30;99.90;;;;;;5049194;28;20023;-76
2024/01/06 02:39:26;;;;;;;8.23;4.35;;;5.10;99.90;;;;;;5051530;28;20394;-76
2024/01/06 02:41:52;;;;;;;12.10;4.38;;;5.10;99.90;;;;;;5049591;28;20025;-76
2024/01/06 02:44:17;;;;;;;6.45;2.88;;;5.10;99.90;;;;;;5050874;28;20033;-75
2024/01/06 02:46:43;;;;;;;7.13;3.42;;;4.70;99.90;;;;;;5051632;28;20035;-75
2024/01/06 02:49:09;;;;;;;15.30;3.33;;;5.10;99.90;;;;;;5051634;28;20402;-75
2024/01/06 02:51:43;;;;;;;8.07;3.65;;;5.00;99.90;;;;;;5050198;28;20472;-75
2024/01/06 02:54:09;;;;;;;8.70;4.00;;;5.00;99.90;;;;;;5052000;28;20131;-75
2024/01/06 02:56:35;;;;;;;5.13;2.92;;;5.00;99.90;;;;;;5049691;28;20501;-75
2024/01/06 02:59:04;;;;;;;6.85;2.20;;;5.00;99.90;;;;;;5051812;28;20434;-74
2024/01/06 03:01:31;;;;;;;3.80;3.05;;;4.90;99.90;;;;;;5049995;28;20025;-76
2024/01/06 03:03:57;;;;;;;7.50;3.53;;;4.90;99.90;;;;;;5051787;28;20017;-75
2024/01/06 03:06:22;;;;;;;9.73;2.85;;;4.90;99.90;;;;;;5050112;28;20036;-74
2024/01/06 03:08:51;;;;;;;9.70;2.75;;;4.80;99.90;;;;;;5049977;28;20108;-74
2024/01/06 03:11:17;;;;;;;4.90;2.20;;;4.80;99.90;;;;;;5052184;28;20129;-73
2024/01/06 03:13:42;;;;;;;4.80;2.17;;;4.80;99.90;;;;;;5049932;28;20509;-75
2024/01/06 03:16:08;;;;;;;4.72;2.60;;;4.80;99.90;;;;;;5050651;28;20021;-74
2024/01/06 03:19:28;;;;;;;8.02;3.35;;;4.80;99.90;;;;;;5032257;28;20045;-75
2024/01/06 03:21:35;;;;;;;4.55;2.40;;;4.80;99.90;;;;;;5039997;28;20106;-75
2024/01/06 03:24:01;;;;;;;6.70;3.25;;;4.80;99.90;;;;;;5052004;28;20021;-76
2024/01/06 03:26:30;;;;;;;6.95;2.40;;;4.80;99.90;;;;;;5051747;28;20094;-76
2024/01/06 03:29:02;;;;;;;9.60;3.25;;;4.80;99.90;;;;;;5051517;28;20025;-77
2024/01/06 03:31:45;;;;;;;3.95;1.98;;;4.80;99.90;;;;;;5049664;28;20064;-77
2024/01/06 03:34:11;;;;;;;2.83;2.63;;;5.60;99.90;;;;;;5033561;28;20466;-76
2024/01/06 03:36:40;;;;;;;4.75;2.13;;;4.80;99.90;;;;;;5033073;28;20295;-75
2024/01/06 03:39:13;;;;;;;14.98;2.70;;;4.80;99.90;;;;;;5050878;28;20033;-74
2024/01/06 03:45:35;;;;;;;7.78;2.30;;;4.80;99.90;;;;;;5027966;28;20044;-77
2024/01/06 03:51:23;;;;;;;5.13;2.15;;;4.80;99.90;;;;;;4950630;28;20041;-77
2024/01/06 03:53:49;;;;;;;2.28;2.00;;;4.80;99.90;;;;;;4961564;28;20042;-76
2024/01/06 03:56:14;;;;;;;6.63;2.08;;;4.00;99.90;;;;;;5034421;28;20537;-75
2024/01/06 03:58:40;;;;;;;6.60;2.70;;;4.80;99.90;;;;;;5050517;28;20100;-76
2024/01/06 04:01:06;;;;;;;5.60;3.00;;;4.80;99.90;;;;;;5051540;28;20382;-76
2024/01/06 04:03:41;;;;;;;5.72;2.53;;;4.80;99.90;;;;;;5051627;28;20382;-76
2024/01/06 04:06:18;;;;;;;3.83;2.35;;;4.80;99.90;;;;;;5048627;28;20021;-77
2024/01/06 04:08:50;;;;;;;4.10;2.60;;;4.80;99.90;;;;;;5050081;28;20059;-75
2024/01/06 04:11:25;;;;;;;4.35;2.08;;;4.80;99.90;;;;;;5036225;28;20066;-74
2024/01/06 04:13:59;;;;;;;6.35;2.15;;;4.80;99.90;;;;;;5060493;28;20021;-76
2024/01/06 04:16:27;;;;;;;5.63;2.55;;;4.80;99.90;;;;;;5042899;28;20086;-75
2024/01/06 04:18:53;;;;;;;6.45;2.80;;;4.80;99.90;;;;;;5060192;28;20091;-75
2024/01/06 04:21:19;;;;;;;7.03;2.17;;;4.80;99.90;;;;;;5060375;28;20020;-75
2024/01/06 04:23:44;;;;;;;4.47;2.13;;;4.80;99.90;;;;;;5049158;28;20060;-74
2024/01/06 04:26:22;;;;;;;6.40;2.30;;;4.80;99.90;;;;;;5040389;28;20022;-74
2024/01/06 04:28:48;;;;;;;5.15;2.10;;;4.80;99.90;;;;;;5040990;28;20028;-75
2024/01/06 04:31:13;;;;;;;6.25;2.65;;;4.70;99.90;;;;;;5040805;28;20021;-75
2024/01/06 04:33:40;;;;;;;5.68;1.55;;;4.70;99.90;;;;;;5022736;28;20053;-74
2024/01/06 04:36:09;;;;;;;7.53;1.83;;;4.70;99.90;;;;;;5041213;28;20024;-74
2024/01/06 04:38:35;;;;;;;7.00;1.90;;;5.50;99.90;;;;;;5057879;28;20348;-76
2024/01/06 04:41:01;;;;;;;7.25;1.63;;;4.70;99.90;;;;;;5060671;28;20022;-77
2024/01/06 04:43:27;;;;;;;6.32;1.80;;;4.70;99.90;;;;;;5055126;28;20017;-76
2024/01/06 04:45:53;;;;;;;2.88;1.90;;;4.70;99.90;;;;;;5041249;28;20036;-77
2024/01/06 04:48:28;;;;;;;6.18;1.83;;;4.70;99.90;;;;;;5041118;28;20024;-76
2024/01/06 04:51:03;;;;;;;6.35;1.90;;;4.70;99.90;;;;;;5040356;28;20084;-76
2024/01/06 04:53:28;;;;;;;4.88;1.80;;;4.70;99.90;;;;;;5055784;28;20025;-76
2024/01/06 04:55:54;;;;;;;5.00;1.75;;;4.70;99.90;;;;;;5039497;28;20028;-76
2024/01/06 04:58:21;;;;;;;7.35;3.08;;;4.70;99.90;;;;;;5040171;28;20048;-77
2024/01/06 05:00:54;;;;;;;3.15;1.50;;;4.70;99.90;;;;;;5039519;28;20024;-76
2024/01/06 05:03:20;;;;;;;3.88;1.50;;;4.70;99.90;;;;;;5022387;28;20025;-76
2024/01/06 05:05:46;;;;;;;3.83;1.55;;;4.70;99.90;;;;;;5039590;28;20282;-76
2024/01/06 05:08:17;;;;;;;6.55;2.30;;;4.60;99.90;;;;;;5040514;28;20234;-77
2024/01/06 05:10:43;;;;;;;2.97;2.47;;;4.60;99.90;;;;;;5021138;28;20076;-76
2024/01/06 05:13:08;;;;;;;11.50;2.08;;;4.60;99.90;;;;;;5044388;28;20017;-75
2024/01/06 05:15:34;;;;;;;3.80;1.55;;;4.50;99.90;;;;;;5059474;28;20020;-77
2024/01/06 05:18:00;;;;;;;4.70;1.60;;;4.60;99.90;;;;;;5059282;28;20087;-76
2024/01/06 05:20:25;;;;;;;5.78;1.83;;;4.60;99.90;;;;;;5059797;28;20279;-76
2024/01/06 05:22:51;;;;;;;2.53;1.60;;;4.60;99.90;;;;;;5058853;28;20036;-76
2024/01/06 05:25:35;;;;;;;3.95;1.60;;;4.60;99.90;;;;;;5042110;28;20024;-76
2024/01/06 05:28:01;;;;;;;6.10;1.83;;;4.60;99.90;;;;;;5060126;28;20024;-76
2024/01/06 05:30:32;;;;;;;3.55;1.63;;;4.60;99.90;;;;;;5041701;28;20403;-76
2024/01/06 05:32:58;;;;;;;3.03;2.10;;;4.60;99.90;;;;;;5059840;28;20029;-76
2024/01/06 05:35:23;;;;;;;4.80;2.03;;;4.60;99.90;;;;;;5059189;28;20036;-76
2024/01/06 05:37:52;;;;;;;8.32;1.65;;;4.60;99.90;;;;;;5059415;28;20079;-76
2024/01/06 05:40:18;;;;;;;2.20;1.17;;;4.60;99.90;;;;;;5059243;28;20021;-76
2024/01/06 05:42:43;;;;;;;6.97;2.85;;;4.60;99.90;;;;;;5042458;28;20028;-77
2024/01/06 05:45:13;;;;;;;2.70;1.52;;;4.60;99.90;;;;;;5022967;28;20024;-76
2024/01/06 05:47:39;;;;;;;5.53;2.20;;;4.60;99.90;;;;;;5039470;28;20037;-76
2024/01/06 05:50:05;;;;;;;10.75;2.95;;;4.60;99.90;;;;;;5021981;28;20139;-76
2024/01/06 05:52:31;;;;;;;8.07;2.45;;;4.60;99.90;;;;;;5021672;28;20043;-76
2024/01/06 05:54:58;;;;;;;8.23;2.75;;;4.60;99.90;;;;;;5039827;28;20026;-77
2024/01/06 05:57:24;;;;;;;4.22;1.90;;;4.60;99.90;;;;;;5023077;28;20041;-76
2024/01/06 05:59:49;;;;;;;8.75;2.15;;;4.60;99.90;;;;;;5040327;28;20067;-76
2024/01/06 06:02:15;;;;;;;17.20;2.40;;;4.50;99.90;;;;;;5022296;28;20045;-76
2024/01/06 06:04:41;;;;;;;10.45;2.53;;;4.50;99.90;;;;;;5040237;28;20314;-76
2024/01/06 06:07:07;;;;;;;2.55;1.75;;;4.60;99.90;;;;;;5039108;28;20018;-77
2024/01/06 06:09:34;;;;;;;3.97;1.77;;;4.60;99.90;;;;;;5022457;28;20044;-77
2024/01/06 06:12:00;;;;;;;4.47;1.70;;;4.50;99.90;;;;;;5022344;28;20032;-77
2024/01/06 06:14:26;;;;;;;17.52;4.45;;;4.50;99.90;;;;;;5043300;28;20033;-76
2024/01/06 06:16:51;;;;;;;3.75;2.00;;;4.20;99.90;;;;;;5043276;28;20017;-76
2024/01/06 06:19:18;;;;;;;6.82;2.08;;;4.50;99.90;;;;;;5043035;28;20064;-77
2024/01/06 06:21:44;;;;;;;9.32;1.70;;;4.50;99.90;;;;;;5025082;28;20091;-76
2024/01/06 06:24:10;;;;;;;5.70;2.17;;;4.50;99.90;;;;;;5041117;28;20044;-77
2024/01/06 06:26:36;;;;;;;3.28;1.90;;;4.50;99.90;;;;;;5042289;28;20033;-76
2024/01/06 06:29:02;;;;;;;3.42;2.22;;;4.50;99.90;;;;;;5026109;28;20017;-77
2024/01/06 06:31:27;;;;;;;7.18;1.63;;;4.50;99.90;;;;;;5025958;28;20027;-76
2024/01/06 06:33:53;;;;;;;3.05;2.00;;;4.50;99.90;;;;;;5041019;28;20032;-77
2024/01/06 06:36:19;;;;;;;3.10;2.20;;;4.50;99.90;;;;;;5045011;28;20100;-76
2024/01/06 06:38:45;;;;;;;5.00;1.60;;;4.50;99.90;;;;;;5044636;28;20197;-77
2024/01/06 06:41:11;;;;;;;9.95;2.05;;;4.50;99.90;;;;;;5062306;28;20048;-76
2024/01/06 06:43:36;;;;;;;4.35;1.77;;;4.40;99.90;;;;;;5045295;28;20036;-76
2024/01/06 06:46:03;;;;;;;5.20;2.20;;;4.40;99.90;;;;;;5063108;28;20021;-76
2024/01/06 06:48:28;;;;;;;4.78;1.63;;;4.40;99.90;;;;;;5045050;28;20021;-77
2024/01/06 06:50:55;;;;;;;4.65;2.05;;;4.40;99.90;;;;;;5063205;28;20066;-76
2024/01/06 06:53:20;;;;;;;3.92;1.40;;;4.40;99.90;;;;;;5061823;28;20020;-77
2024/01/06 06:55:49;;;;;;;4.28;1.88;;;4.40;99.90;;;;;;5061941;28;20072;-76
2024/01/06 06:58:21;;;;;;;3.67;2.00;;;4.30;99.90;;;;;;5043582;28;20161;-77
2024/01/06 07:00:47;;;;;;;2.47;1.52;;;4.40;99.90;;;;;;5060571;28;20029;-76
2024/01/06 07:03:14;;;;;;;3.22;1.67;;;4.40;99.90;;;;;;5060962;28;20254;-77
2024/01/06 07:05:39;;;;;;;2.40;1.85;;;4.40;99.90;;;;;;5060366;28;20363;-77
2024/01/06 07:08:05;;;;;;;5.05;2.25;;;4.40;99.90;;;;;;5062595;28;20021;-77
2024/01/06 07:10:31;;;;;;;8.43;3.65;;;4.30;99.90;;;;;;5060087;28;20017;-77
2024/01/06 07:12:57;;;;;;;12.68;2.35;;;4.40;99.90;;;;;;5061274;28;20029;-77
2024/01/06 07:15:22;;;;;;;7.07;2.08;;;4.40;99.90;;;;;;5060360;28;20132;-76
2024/01/06 07:17:48;;;;;;;5.78;2.67;;;4.40;99.90;;;;;;5061681;28;20250;-77
2024/01/06 07:20:14;;;;;;;5.82;2.40;;;4.30;99.90;;;;;;5060455;28;20021;-76
2024/01/06 07:22:41;;;;;;;5.55;1.98;;;4.30;99.90;;;;;;5061228;28;20032;-76
2024/01/06 07:25:12;;;;;;;6.57;2.17;;;4.30;99.90;;;;;;5061731;28;20034;-76
2024/01/06 07:27:50;;;;;;;6.93;2.05;;;4.30;99.90;;;;;;5043710;28;20024;-77
2024/01/06 07:31:09;;;;;;;5.35;3.83;;;4.30;99.90;;;;;;5043327;28;20036;-77
2024/01/06 07:33:35;;;;;;;9.10;2.25;;;4.30;99.90;;;;;;5061704;28;20017;-76
2024/01/06 07:36:00;;;;;;;5.65;3.13;;;4.30;99.90;;;;;;5062278;28;20048;-76
2024/01/06 07:38:26;;;;;;;7.68;3.05;;;4.30;99.90;;;;;;5062280;28;20057;-77
2024/01/06 07:40:53;;;;;;;4.63;2.17;;;4.30;99.90;;;;;;5044140;28;20017;-77
2024/01/06 07:43:19;;;;;;;5.50;2.45;;;4.30;99.90;;;;;;5044268;28;20027;-76
2024/01/06 07:46:26;;;;;;;4.32;2.20;;;5.70;99.90;;;;;;5060299;28;20225;-76
2024/01/06 07:49:12;;;;;;;8.18;2.65;;;4.30;99.90;;;;;;5059572;28;20086;-77
2024/01/06 07:51:38;;;;;;;7.10;2.38;;;4.30;99.90;;;;;;5059965;28;20032;-77
2024/01/06 07:54:30;;;;;;;14.48;2.47;;;4.30;99.90;;;;;;5061974;28;20205;-77
2024/01/06 07:56:59;;;;;;;3.38;2.45;;;4.30;99.90;;;;;;5059781;28;20380;-76
2024/01/06 07:59:39;;;;;;;6.18;2.58;;;4.30;99.90;;;;;;5060447;28;20468;-77
2024/01/06 08:02:12;;;;;;;7.65;2.20;;;4.30;99.90;;;;;;5044146;28;20092;-76
2024/01/06 08:05:07;;;;;;;3.55;2.15;;;4.30;99.90;;;;;;5061113;28;20206;-77
2024/01/06 08:07:33;;;;;;;3.92;2.63;;;4.40;99.90;;;;;;5043004;28;20021;-76
2024/01/06 08:09:59;;;;;;;6.65;1.98;;;4.30;99.90;;;;;;5061100;28;20058;-76
2024/01/06 08:12:25;;;;;;;5.88;3.55;;;4.30;99.90;;;;;;5060158;28;20017;-77
2024/01/06 08:14:50;;;;;;;3.45;2.20;;;4.30;99.90;;;;;;5042999;28;20118;-76
2024/01/06 08:17:16;;;;;;;4.22;2.42;;;4.30;99.90;;;;;;5060297;28;20033;-76
2024/01/06 08:19:42;;;;;;;5.22;2.42;;;4.40;99.90;;;;;;5060424;28;20057;-76
2024/01/06 08:22:09;;;;;;;7.25;2.55;;;4.50;99.90;;;;;;5061285;28;20051;-77
2024/01/06 08:24:35;;;;;;;5.85;2.00;;;4.50;99.90;;;;;;5061657;28;20048;-77
2024/01/06 08:27:00;;;;;;;7.10;2.13;;;4.60;99.90;;;;;;5061158;28;20013;-76
2024/01/06 08:29:26;;;;;;;3.33;1.80;;;4.60;99.90;;;;;;5061277;28;20115;-77
2024/01/06 08:31:54;;;;;;;3.22;1.90;;;4.60;99.90;;;;;;5060856;28;20032;-76
2024/01/06 08:34:20;;;;;;;6.65;2.08;;;4.70;99.90;;;;;;5060352;28;20085;-76
2024/01/06 08:36:53;;;;;;;3.80;2.22;;;4.70;99.90;;;;;;5061397;28;20243;-76
2024/01/06 08:39:22;;;;;;;4.13;2.20;;;4.80;99.90;;;;;;5043297;28;20032;-76
2024/01/06 08:41:47;;;;;;;6.18;3.30;;;4.80;99.90;;;;;;5060761;28;20016;-76
2024/01/06 08:44:14;;;;;;;4.88;1.70;;;4.80;99.90;;;;;;5031095;28;20033;-76
2024/01/06 08:46:39;;;;;;;10.65;4.15;;;4.80;99.90;;;;;;5023473;28;20021;-76
2024/01/06 08:49:05;;;;;;;9.93;3.45;;;4.70;99.90;;;;;;5040959;28;20211;-75
2024/01/06 08:51:31;;;;;;;6.30;3.28;;;4.70;99.90;;;;;;5023308;28;20018;-76
2024/01/06 08:53:57;;;;;;;4.78;2.55;;;4.70;99.90;;;;;;5041071;28;20048;-76
2024/01/06 08:56:23;;;;;;;6.35;3.28;;;4.80;99.90;;;;;;5040894;28;20079;-76
2024/01/06 08:58:48;;;;;;;8.38;2.60;;;4.80;99.90;;;;;;5040437;28;20037;-76
2024/01/06 09:01:14;;;;;;;5.93;3.55;;;4.80;99.90;;;;;;5040319;28;20026;-77
2024/01/06 09:03:48;;;;;;;6.35;4.25;;;4.90;99.90;;;;;;5039361;28;20022;-76
2024/01/06 09:06:14;;;;;;;4.65;4.00;;;4.90;99.90;;;;;;5021979;28;20025;-77
2024/01/06 09:11:46;;;;;;;6.13;2.90;;;4.90;99.90;;;;;;5060080;28;20075;-76
2024/01/06 09:14:12;;;;;;;2.53;2.03;;;5.00;99.90;;;;;;5041869;28;20024;-76
2024/01/06 09:17:22;;;;;;;3.88;2.50;;;5.00;99.90;;;;;;5060377;28;20041;-77
2024/01/06 09:23:38;;;;;;;6.68;3.45;;;5.10;99.90;;;;;;5060398;28;20031;-76
2024/01/06 09:26:04;;;;;;;8.30;4.25;;;5.20;99.90;;;;;;5039262;28;20033;-77
2024/01/06 09:32:24;;;;;;;10.10;4.40;;;5.10;99.90;;;;;;5037023;28;20144;-76
2024/01/06 09:38:20;;;;;;;7.88;4.22;;;5.40;99.90;;;;;;5049299;28;20235;-77
2024/01/06 09:41:31;;;;;;;17.98;6.63;;;5.50;99.90;;;;;;5011092;28;20313;-76
2024/01/06 09:43:57;;;;;;;3.15;2.25;;;5.60;99.90;;;;;;4941764;29;20098;-77
2024/01/06 09:50:05;;;;;;;5.18;2.97;;;5.50;99.90;;;;;;4872212;29;20125;-76
2024/01/06 09:52:33;;;;;;;3.35;2.50;;;5.50;99.90;;;;;;4941098;29;20055;-76
2024/01/06 09:55:02;;;;;;;6.50;2.80;;;5.50;99.90;;;;;;4982607;28;20198;-76
2024/01/06 09:57:27;;;;;;;4.15;2.35;;;5.50;99.90;;;;;;5042308;28;20076;-76
2024/01/06 09:59:55;;;;;;;8.10;2.47;;;5.40;99.90;;;;;;5046870;28;20044;-76
2024/01/06 10:02:22;;;;;;;3.75;2.60;;;5.40;99.90;;;;;;5044724;28;20021;-77
2024/01/06 10:04:48;;;;;;;8.98;3.35;;;5.40;99.90;;;;;;5046196;28;20033;-76
2024/01/06 10:07:14;;;;;;;4.35;3.05;;;5.40;99.90;;;;;;5058535;28;20064;-76
2024/01/06 10:09:41;;;;;;;4.80;3.00;;;5.50;99.90;;;;;;5034737;28;20493;-75
2024/01/06 10:12:08;;;;;;;8.07;3.33;;;5.50;99.90;;;;;;5057096;28;20533;-77
2024/01/06 10:14:34;;;;;;;10.57;3.78;;;5.50;99.90;;;;;;5053424;28;20025;-78
2024/01/06 10:16:59;;;;;;;4.40;2.50;;;5.70;99.90;;;;;;5053531;28;20035;-76
2024/01/06 10:19:25;;;;;;;4.50;2.47;;;5.60;99.90;;;;;;5052586;28;20041;-76
2024/01/06 10:21:51;;;;;;;6.07;2.95;;;5.60;99.90;;;;;;5054394;28;20033;-74
2024/01/06 10:24:21;;;;;;;4.97;3.25;;;5.60;99.90;;;;;;5029272;28;20235;-74
2024/01/06 10:26:46;;;;;;;4.03;3.10;;;5.60;99.90;;;;;;5048569;28;20029;-75
2024/01/06 10:29:27;;;;;;;4.35;2.40;;;5.70;99.90;;;;;;5037624;28;20078;-74
2024/01/06 10:32:12;;;;;;;5.25;2.85;;;5.80;99.90;;;;;;5033195;28;20063;-74
2024/01/06 10:34:38;;;;;;;3.85;1.75;;;5.90;99.90;;;;;;5052514;28;20040;-74
2024/01/06 10:37:17;;;;;;;3.67;2.63;;;6.10;99.90;;;;;;5053002;28;20040;-75
2024/01/06 10:39:45;;;;;;;2.90;1.67;;;6.30;99.90;;;;;;5033060;28;20455;-74
2024/01/06 10:42:44;;;;;;;4.40;1.75;;;6.20;99.90;;;;;;5033122;28;20064;-73
2024/01/06 10:45:23;;;;;;;5.35;2.42;;;6.30;99.90;;;;;;5037135;28;20196;-74
2024/01/06 10:47:59;;;;;;;4.10;3.35;;;6.20;99.90;;;;;;5048170;28;20064;-75
2024/01/06 10:50:48;;;;;;;4.97;2.90;;;6.10;99.90;;;;;;5057300;28;20024;-74
2024/01/06 10:53:21;;;;;;;4.07;2.63;;;6.20;99.90;;;;;;5038778;28;20037;-75
2024/01/06 10:55:51;;;;;;;3.08;2.60;;;6.40;99.90;;;;;;5057478;28;20017;-75
2024/01/06 10:58:30;;;;;;;5.63;3.50;;;6.40;99.90;;;;;;5040714;28;20041;-75
2024/01/06 11:01:11;;;;;;;6.32;2.70;;;6.40;99.90;;;;;;5033741;28;20294;-77
2024/01/06 11:03:46;;;;;;;4.32;2.80;;;6.40;99.90;;;;;;5026689;28;20033;-74
2024/01/06 11:06:48;;;;;;;6.07;3.55;;;6.40;99.90;;;;;;5016195;28;20091;-74
2024/01/06 11:10:18;;;;;;;6.45;3.20;;;6.50;99.90;;;;;;4972136;28;20086;-74
2024/01/06 11:13:27;;;;;;;5.10;3.20;;;6.40;99.90;;;;;;4965469;28;20103;-75
2024/01/06 11:19:37;;;;;;;5.78;3.72;;;6.50;99.90;;;;;;5055907;28;20222;-74
2024/01/06 11:22:41;;;;;;;4.90;3.30;;;6.70;99.90;;;;;;5058729;28;20108;-74
2024/01/06 11:25:56;;;;;;;5.68;3.03;;;6.60;99.90;;;;;;5049280;28;20388;-74
2024/01/06 11:29:01;;;;;;;5.50;2.60;;;6.50;99.90;;;;;;4989122;28;20030;-74
2024/01/06 11:31:44;;;;;;;4.05;2.70;;;6.60;99.90;;;;;;5002690;28;20536;-74
2024/01/06 11:34:24;;;;;;;4.32;3.03;;;6.70;99.90;;;;;;5050041;28;20025;-75
2024/01/06 11:36:55;;;;;;;5.28;3.42;;;6.60;99.90;;;;;;5049618;28;20025;-75
2024/01/06 11:39:35;;;;;;;4.57;2.25;;;6.60;99.90;;;;;;5057196;28;20045;-75
2024/01/06 11:42:01;;;;;;;4.07;2.53;;;6.60;99.90;;;;;;5061468;28;20017;-75
2024/01/06 11:44:29;;;;;;;5.15;3.45;;;6.70;99.90;;;;;;5061293;28;20013;-75
2024/01/06 11:46:58;;;;;;;5.65;3.60;;;6.50;99.90;;;;;;5058379;28;20040;-74
2024/01/06 11:49:29;;;;;;;4.45;3.10;;;6.50;99.90;;;;;;5046925;28;20025;-74
2024/01/06 11:51:57;;;;;;;4.85;3.38;;;6.50;99.90;;;;;;5041470;28;20041;-75
2024/01/06 11:54:22;;;;;;;5.45;3.35;;;6.50;99.90;;;;;;5051400;28;20021;-75
2024/01/06 11:56:48;;;;;;;4.13;3.50;;;6.40;99.90;;;;;;5058629;28;20090;-76
2024/01/06 11:59:14;;;;;;;4.53;3.15;;;6.40;99.90;;;;;;5061030;28;20025;-75
2024/01/06 12:01:40;;;;;;;7.55;3.17;;;6.40;99.90;;;;;;5059411;28;20025;-75
2024/01/06 12:04:07;;;;;;;4.50;3.53;;;6.40;99.90;;;;;;5060975;28;20020;-75
2024/01/06 12:06:40;;;;;;;3.45;2.65;;;7.40;99.90;;;;;;5060479;28;20305;-75
2024/01/06 12:09:14;;;;;;;4.80;3.53;;;6.20;99.90;;;;;;5059911;28;20260;-75
2024/01/06 12:11:40;;;;;;;5.53;3.70;;;6.10;99.90;;;;;;5058032;28;20017;-76
2024/01/06 12:14:09;;;;;;;4.30;2.72;;;6.10;99.90;;;;;;5061239;28;20339;-74
2024/01/06 12:16:36;;;;;;;6.63;3.53;;;6.10;99.90;;;;;;5060327;28;20212;-75
2024/01/06 12:19:09;;;;;;;6.93;3.70;;;6.10;99.90;;;;;;5055678;28;20344;-76
2024/01/06 12:21:37;;;;;;;5.05;3.25;;;6.10;99.90;;;;;;5043292;28;20032;-75
2024/01/06 12:24:20;;;;;;;5.28;3.50;;;6.20;99.90;;;;;;5060136;28;20396;-74
2024/01/06 12:26:46;;;;;;;4.90;3.47;;;6.20;99.90;;;;;;5058013;28;20024;-74
2024/01/06 12:29:13;;;;;;;5.30;3.58;;;6.20;99.90;;;;;;5036695;28;20036;-74
2024/01/06 12:31:39;;;;;;;6.00;3.10;;;6.20;99.90;;;;;;5040806;28;20010;-75
2024/01/06 12:34:07;;;;;;;3.75;3.25;;;6.20;99.90;;;;;;5040153;28;20450;-75
2024/01/06 12:36:37;;;;;;;3.22;2.45;;;6.20;99.90;;;;;;5041275;28;20029;-72
2024/01/06 12:39:09;;;;;;;4.13;3.13;;;6.20;99.90;;;;;;5061068;28;20039;-74
2024/01/06 12:41:38;;;;;;;6.03;3.72;;;6.10;99.90;;;;;;5060262;28;20045;-73
2024/01/06 12:44:04;;;;;;;4.07;2.97;;;6.10;99.90;;;;;;5054604;28;20015;-73
2024/01/06 12:47:17;;;;;;;6.97;3.10;;;6.00;99.90;;;;;;5057060;28;20055;-73
2024/01/06 12:52:24;;;;;;;4.85;3.28;;;5.80;99.90;;;;;;5058802;28;20082;-74
2024/01/06 12:55:09;;;;;;;6.10;3.13;;;5.70;99.90;;;;;;5060071;28;20201;-74
2024/01/06 12:57:35;;;;;;;7.70;4.00;;;5.80;99.90;;;;;;5038634;28;20337;-74
2024/01/06 13:00:02;;;;;;;5.72;3.20;;;5.90;99.90;;;;;;5040256;28;20025;-74
2024/01/06 13:02:28;;;;;;;4.97;3.30;;;6.00;99.90;;;;;;5056749;28;20029;-75
2024/01/06 13:04:54;;;;;;;6.22;3.63;;;6.10;99.90;;;;;;5058483;28;20391;-73
2024/01/06 13:07:23;;;;;;;6.22;3.95;;;6.10;99.90;;;;;;5056770;28;20039;-73
2024/01/06 13:09:49;;;;;;;7.35;3.33;;;6.00;99.90;;;;;;5057069;28;20033;-73
2024/01/06 13:12:15;;;;;;;4.88;2.90;;;6.50;99.90;;;;;;5054804;28;20027;-73
2024/01/06 13:14:42;;;;;;;5.75;3.35;;;6.10;99.90;;;;;;5057627;28;20339;-73
2024/01/06 13:17:09;;;;;;;6.03;2.95;;;6.10;99.90;;;;;;5053948;28;20045;-74
2024/01/06 13:19:40;;;;;;;4.88;3.42;;;6.00;99.90;;;;;;5056636;28;20064;-74
2024/01/06 13:22:06;;;;;;;4.78;3.25;;;5.80;99.90;;;;;;5044167;28;20028;-72
2024/01/06 13:24:35;;;;;;;4.95;3.40;;;5.90;99.90;;;;;;5059027;28;20024;-73
2024/01/06 13:27:02;;;;;;;4.65;3.55;;;5.80;99.90;;;;;;5056770;28;20020;-73
2024/01/06 13:29:29;;;;;;;8.20;3.85;;;5.90;99.90;;;;;;5064896;28;20359;-73
2024/01/06 13:31:55;;;;;;;11.07;4.88;;;6.00;99.90;;;;;;5062476;28;20017;-72
2024/01/06 13:34:29;;;;;;;5.45;2.97;;;6.00;99.90;;;;;;5062857;28;20029;-73
2024/01/06 13:36:58;;;;;;;8.65;3.55;;;6.00;99.90;;;;;;5065043;28;20017;-73
2024/01/06 13:39:24;;;;;;;6.80;4.20;;;5.90;99.90;;;;;;5064640;28;20078;-73